sensor_id;sensor_type;location;lat;lon;timestamp;temperature;humidity
16313;DHT22;8265;52.622;13.296;2023-12-14T00:03:41;3.10;98.40
16313;DHT22;8265;52.622;13.296;2023-12-14T00:09:02;3.00;97.90
16313;DHT22;8265;52.622;13.296;2023-12-14T00:14:23;3.00;98.00
16313;DHT22;8265;52.622;13.296;2023-12-14T00:19:44;3.00;98.30
16313;DHT22;8265;52.622;13.296;2023-12-14T00:25:05;3.10;98.40
16313;DHT22;8265;52.622;13.296;2023-12-14T00:30:26;3.00;98.30
16313;DHT22;8265;52.622;13.296;2023-12-14T00:35:47;2.90;98.30
16313;DHT22;8265;52.622;13.296;2023-12-14T00:41:08;2.80;97.90
16313;DHT22;8265;52.622;13.296;2023-12-14T00:46:29;2.80;98.10
16313;DHT22;8265;52.622;13.296;2023-12-14T00:51:50;2.90;97.60
16313;DHT22;8265;52.622;13.296;2023-12-14T00:57:11;2.80;97.10
16313;DHT22;8265;52.622;13.296;2023-12-14T01:02:32;2.80;97.50
16313;DHT22;8265;52.622;13.296;2023-12-14T01:07:53;2.60;97.00
16313;DHT22;8265;52.622;13.296;2023-12-14T01:13:14;2.60;97.20
16313;DHT22;8265;52.622;13.296;2023-12-14T01:18:35;2.50;97.50
16313;DHT22;8265;52.622;13.296;2023-12-14T01:23:56;2.50;98.10
16313;DHT22;8265;52.622;13.296;2023-12-14T01:29:16;2.60;97.80
16313;DHT22;8265;52.622;13.296;2023-12-14T01:34:37;2.50;97.40
16313;DHT22;8265;52.622;13.296;2023-12-14T01:39:58;2.50;97.60
16313;DHT22;8265;52.622;13.296;2023-12-14T01:45:19;2.50;97.50
16313;DHT22;8265;52.622;13.296;2023-12-14T01:50:41;2.50;97.20
16313;DHT22;8265;52.622;13.296;2023-12-14T01:56:01;2.40;97.30
16313;DHT22;8265;52.622;13.296;2023-12-14T02:06:43;2.40;98.30
16313;DHT22;8265;52.622;13.296;2023-12-14T02:12:05;2.40;98.20
16313;DHT22;8265;52.622;13.296;2023-12-14T02:17:25;2.40;98.20
16313;DHT22;8265;52.622;13.296;2023-12-14T02:22:55;2.40;97.80
16313;DHT22;8265;52.622;13.296;2023-12-14T02:28:07;2.40;98.00
16313;DHT22;8265;52.622;13.296;2023-12-14T02:33:28;2.50;97.80
16313;DHT22;8265;52.622;13.296;2023-12-14T02:38:49;2.50;97.30
16313;DHT22;8265;52.622;13.296;2023-12-14T02:44:10;2.50;97.60
16313;DHT22;8265;52.622;13.296;2023-12-14T02:49:31;2.50;97.60
16313;DHT22;8265;52.622;13.296;2023-12-14T02:54:52;2.40;97.60
16313;DHT22;8265;52.622;13.296;2023-12-14T03:00:14;2.40;97.90
16313;DHT22;8265;52.622;13.296;2023-12-14T03:05:34;2.30;97.80
16313;DHT22;8265;52.622;13.296;2023-12-14T03:10:55;2.40;98.10
16313;DHT22;8265;52.622;13.296;2023-12-14T03:16:17;2.40;97.70
16313;DHT22;8265;52.622;13.296;2023-12-14T03:21:37;2.40;97.40
16313;DHT22;8265;52.622;13.296;2023-12-14T03:26:58;2.40;97.60
16313;DHT22;8265;52.622;13.296;2023-12-14T03:32:19;2.40;97.60
16313;DHT22;8265;52.622;13.296;2023-12-14T03:37:40;2.40;97.40
16313;DHT22;8265;52.622;13.296;2023-12-14T03:43:01;2.30;97.50
16313;DHT22;8265;52.622;13.296;2023-12-14T03:48:22;2.40;97.20
16313;DHT22;8265;52.622;13.296;2023-12-14T03:53:43;2.30;97.20
16313;DHT22;8265;52.622;13.296;2023-12-14T03:59:04;2.30;97.60
16313;DHT22;8265;52.622;13.296;2023-12-14T04:04:25;2.30;97.70
16313;DHT22;8265;52.622;13.296;2023-12-14T04:09:46;2.30;97.70
16313;DHT22;8265;52.622;13.296;2023-12-14T04:15:08;2.40;97.90
16313;DHT22;8265;52.622;13.296;2023-12-14T04:20:28;2.40;97.60
16313;DHT22;8265;52.622;13.296;2023-12-14T04:25:49;2.40;97.70
16313;DHT22;8265;52.622;13.296;2023-12-14T04:31:10;2.40;98.00
16313;DHT22;8265;52.622;13.296;2023-12-14T04:36:31;2.40;97.50
16313;DHT22;8265;52.622;13.296;2023-12-14T04:41:52;2.40;97.50
16313;DHT22;8265;52.622;13.296;2023-12-14T04:47:13;2.40;97.70
16313;DHT22;8265;52.622;13.296;2023-12-14T04:52:34;2.30;97.80
16313;DHT22;8265;52.622;13.296;2023-12-14T04:57:55;2.40;98.20
16313;DHT22;8265;52.622;13.296;2023-12-14T05:03:16;2.40;98.00
16313;DHT22;8265;52.622;13.296;2023-12-14T05:08:37;2.30;97.90
16313;DHT22;8265;52.622;13.296;2023-12-14T05:13:58;2.30;98.00
16313;DHT22;8265;52.622;13.296;2023-12-14T05:19:19;2.40;98.20
16313;DHT22;8265;52.622;13.296;2023-12-14T05:24:40;2.40;98.10
16313;DHT22;8265;52.622;13.296;2023-12-14T05:30:01;2.40;98.00
16313;DHT22;8265;52.622;13.296;2023-12-14T05:35:22;2.30;97.60
16313;DHT22;8265;52.622;13.296;2023-12-14T05:40:43;2.20;98.20
16313;DHT22;8265;52.622;13.296;2023-12-14T05:46:04;2.20;98.40
16313;DHT22;8265;52.622;13.296;2023-12-14T05:51:26;2.30;98.30
16313;DHT22;8265;52.622;13.296;2023-12-14T05:56:46;2.20;98.40
16313;DHT22;8265;52.622;13.296;2023-12-14T06:02:07;2.10;98.60
16313;DHT22;8265;52.622;13.296;2023-12-14T06:07:28;2.20;98.80
16313;DHT22;8265;52.622;13.296;2023-12-14T06:12:49;2.20;98.60
16313;DHT22;8265;52.622;13.296;2023-12-14T06:18:10;2.30;98.90
16313;DHT22;8265;52.622;13.296;2023-12-14T06:23:31;2.30;98.40
16313;DHT22;8265;52.622;13.296;2023-12-14T06:28:52;2.30;98.40
16313;DHT22;8265;52.622;13.296;2023-12-14T06:34:13;2.30;98.00
16313;DHT22;8265;52.622;13.296;2023-12-14T06:39:34;2.30;97.90
16313;DHT22;8265;52.622;13.296;2023-12-14T06:44:55;2.30;97.90
16313;DHT22;8265;52.622;13.296;2023-12-14T06:50:16;2.30;98.10
16313;DHT22;8265;52.622;13.296;2023-12-14T06:55:37;2.40;98.00
16313;DHT22;8265;52.622;13.296;2023-12-14T07:00:58;2.30;97.30
16313;DHT22;8265;52.622;13.296;2023-12-14T07:06:19;2.30;98.00
16313;DHT22;8265;52.622;13.296;2023-12-14T07:11:40;2.30;97.90
16313;DHT22;8265;52.622;13.296;2023-12-14T07:17:01;2.30;98.10
16313;DHT22;8265;52.622;13.296;2023-12-14T07:22:22;2.40;98.00
16313;DHT22;8265;52.622;13.296;2023-12-14T07:27:43;2.40;97.80
16313;DHT22;8265;52.622;13.296;2023-12-14T07:33:04;2.30;97.80
16313;DHT22;8265;52.622;13.296;2023-12-14T07:38:25;2.40;98.40
16313;DHT22;8265;52.622;13.296;2023-12-14T07:43:46;2.50;98.10
16313;DHT22;8265;52.622;13.296;2023-12-14T07:49:07;2.40;97.90
16313;DHT22;8265;52.622;13.296;2023-12-14T07:54:28;2.40;97.30
16313;DHT22;8265;52.622;13.296;2023-12-14T07:59:49;2.40;97.70
16313;DHT22;8265;52.622;13.296;2023-12-14T08:05:10;2.50;97.90
16313;DHT22;8265;52.622;13.296;2023-12-14T08:10:31;2.40;98.00
16313;DHT22;8265;52.622;13.296;2023-12-14T08:15:52;2.50;97.40
16313;DHT22;8265;52.622;13.296;2023-12-14T08:21:13;2.50;97.20
16313;DHT22;8265;52.622;13.296;2023-12-14T08:26:34;2.50;96.40
16313;DHT22;8265;52.622;13.296;2023-12-14T08:31:55;2.50;97.10
16313;DHT22;8265;52.622;13.296;2023-12-14T08:37:16;2.50;97.40
16313;DHT22;8265;52.622;13.296;2023-12-14T08:42:37;2.50;97.10
16313;DHT22;8265;52.622;13.296;2023-12-14T08:47:58;2.50;97.10
16313;DHT22;8265;52.622;13.296;2023-12-14T08:53:19;2.50;97.20
16313;DHT22;8265;52.622;13.296;2023-12-14T08:58:40;2.50;97.20
16313;DHT22;8265;52.622;13.296;2023-12-14T09:04:01;2.60;97.60
16313;DHT22;8265;52.622;13.296;2023-12-14T09:09:22;2.50;96.90
16313;DHT22;8265;52.622;13.296;2023-12-14T09:14:43;2.60;97.10
16313;DHT22;8265;52.622;13.296;2023-12-14T09:20:04;2.70;95.70
16313;DHT22;8265;52.622;13.296;2023-12-14T09:25:25;2.50;96.50
16313;DHT22;8265;52.622;13.296;2023-12-14T09:30:46;2.60;96.30
16313;DHT22;8265;52.622;13.296;2023-12-14T09:36:07;2.70;95.30
16313;DHT22;8265;52.622;13.296;2023-12-14T09:41:28;2.70;96.40
16313;DHT22;8265;52.622;13.296;2023-12-14T09:46:49;2.50;96.00
16313;DHT22;8265;52.622;13.296;2023-12-14T09:52:10;2.70;96.10
16313;DHT22;8265;52.622;13.296;2023-12-14T09:57:31;2.70;96.10
16313;DHT22;8265;52.622;13.296;2023-12-14T10:02:51;2.90;96.30
16313;DHT22;8265;52.622;13.296;2023-12-14T10:08:13;3.00;95.20
16313;DHT22;8265;52.622;13.296;2023-12-14T10:13:37;3.00;94.80
16313;DHT22;8265;52.622;13.296;2023-12-14T10:18:55;3.00;94.60
16313;DHT22;8265;52.622;13.296;2023-12-14T10:24:16;3.00;94.40
16313;DHT22;8265;52.622;13.296;2023-12-14T10:29:37;3.00;94.40
16313;DHT22;8265;52.622;13.296;2023-12-14T10:34:58;3.00;94.50
16313;DHT22;8265;52.622;13.296;2023-12-14T10:40:18;3.00;92.20
16313;DHT22;8265;52.622;13.296;2023-12-14T10:45:40;3.00;94.60
16313;DHT22;8265;52.622;13.296;2023-12-14T10:51:01;3.00;94.10
16313;DHT22;8265;52.622;13.296;2023-12-14T10:56:21;3.10;93.20
16313;DHT22;8265;52.622;13.296;2023-12-14T11:01:42;3.10;93.20
16313;DHT22;8265;52.622;13.296;2023-12-14T11:07:03;3.10;93.40
16313;DHT22;8265;52.622;13.296;2023-12-14T11:12:24;3.30;92.60
16313;DHT22;8265;52.622;13.296;2023-12-14T11:23:09;3.20;92.20
16313;DHT22;8265;52.622;13.296;2023-12-14T11:28:27;3.20;92.40
16313;DHT22;8265;52.622;13.296;2023-12-14T11:33:48;3.40;92.50
16313;DHT22;8265;52.622;13.296;2023-12-14T11:39:09;3.30;91.70
16313;DHT22;8265;52.622;13.296;2023-12-14T11:44:30;3.10;93.10
16313;DHT22;8265;52.622;13.296;2023-12-14T11:49:51;3.20;92.50
16313;DHT22;8265;52.622;13.296;2023-12-14T11:55:12;3.30;91.80
16313;DHT22;8265;52.622;13.296;2023-12-14T12:00:33;3.30;91.50
16313;DHT22;8265;52.622;13.296;2023-12-14T12:05:54;3.20;92.00
16313;DHT22;8265;52.622;13.296;2023-12-14T12:11:18;3.20;92.00
16313;DHT22;8265;52.622;13.296;2023-12-14T12:16:36;3.20;90.80
16313;DHT22;8265;52.622;13.296;2023-12-14T12:21:57;3.10;91.80
16313;DHT22;8265;52.622;13.296;2023-12-14T12:27:18;3.30;91.60
16313;DHT22;8265;52.622;13.296;2023-12-14T12:32:39;3.30;90.20
16313;DHT22;8265;52.622;13.296;2023-12-14T12:38:00;3.30;89.80
16313;DHT22;8265;52.622;13.296;2023-12-14T12:43:21;3.20;91.30
16313;DHT22;8265;52.622;13.296;2023-12-14T12:48:42;3.10;92.70
16313;DHT22;8265;52.622;13.296;2023-12-14T12:54:03;3.30;90.00
16313;DHT22;8265;52.622;13.296;2023-12-14T12:59:24;3.30;91.10
16313;DHT22;8265;52.622;13.296;2023-12-14T13:04:45;3.30;90.30
16313;DHT22;8265;52.622;13.296;2023-12-14T13:10:06;3.30;90.10
16313;DHT22;8265;52.622;13.296;2023-12-14T13:15:27;3.10;90.70
16313;DHT22;8265;52.622;13.296;2023-12-14T13:20:48;3.10;91.70
16313;DHT22;8265;52.622;13.296;2023-12-14T13:26:09;3.10;90.80
16313;DHT22;8265;52.622;13.296;2023-12-14T13:31:30;3.20;89.70
16313;DHT22;8265;52.622;13.296;2023-12-14T13:36:51;3.10;91.20
16313;DHT22;8265;52.622;13.296;2023-12-14T13:42:12;3.00;91.90
16313;DHT22;8265;52.622;13.296;2023-12-14T13:47:33;3.00;91.80
16313;DHT22;8265;52.622;13.296;2023-12-14T13:52:54;2.90;92.60
16313;DHT22;8265;52.622;13.296;2023-12-14T13:58:15;3.00;92.40
16313;DHT22;8265;52.622;13.296;2023-12-14T14:03:36;2.90;92.80
16313;DHT22;8265;52.622;13.296;2023-12-14T14:08:57;2.80;93.60
16313;DHT22;8265;52.622;13.296;2023-12-14T14:14:18;2.80;93.70
16313;DHT22;8265;52.622;13.296;2023-12-14T14:19:39;2.70;93.40
16313;DHT22;8265;52.622;13.296;2023-12-14T14:25:00;2.80;93.50
16313;DHT22;8265;52.622;13.296;2023-12-14T14:30:21;2.70;94.00
16313;DHT22;8265;52.622;13.296;2023-12-14T14:35:42;2.70;94.30
16313;DHT22;8265;52.622;13.296;2023-12-14T14:41:03;2.70;94.30
16313;DHT22;8265;52.622;13.296;2023-12-14T14:46:24;2.70;94.50
16313;DHT22;8265;52.622;13.296;2023-12-14T14:51:45;2.70;94.30
16313;DHT22;8265;52.622;13.296;2023-12-14T14:57:06;2.80;93.20
16313;DHT22;8265;52.622;13.296;2023-12-14T15:02:27;2.90;93.50
16313;DHT22;8265;52.622;13.296;2023-12-14T15:07:48;2.80;93.50
16313;DHT22;8265;52.622;13.296;2023-12-14T15:13:09;2.80;93.80
16313;DHT22;8265;52.622;13.296;2023-12-14T15:18:30;2.70;94.40
16313;DHT22;8265;52.622;13.296;2023-12-14T15:23:51;2.60;94.70
16313;DHT22;8265;52.622;13.296;2023-12-14T15:29:12;2.60;94.90
16313;DHT22;8265;52.622;13.296;2023-12-14T15:34:33;2.70;94.70
16313;DHT22;8265;52.622;13.296;2023-12-14T15:39:54;2.50;94.60
16313;DHT22;8265;52.622;13.296;2023-12-14T15:45:15;2.50;94.70
16313;DHT22;8265;52.622;13.296;2023-12-14T15:50:36;2.50;94.30
16313;DHT22;8265;52.622;13.296;2023-12-14T15:55:57;2.50;94.50
16313;DHT22;8265;52.622;13.296;2023-12-14T16:01:18;2.40;94.50
16313;DHT22;8265;52.622;13.296;2023-12-14T16:06:39;2.40;94.90
16313;DHT22;8265;52.622;13.296;2023-12-14T16:12:00;2.40;94.80
16313;DHT22;8265;52.622;13.296;2023-12-14T16:17:21;2.40;95.40
16313;DHT22;8265;52.622;13.296;2023-12-14T16:22:46;2.40;94.80
16313;DHT22;8265;52.622;13.296;2023-12-14T16:28:03;2.40;94.90
16313;DHT22;8265;52.622;13.296;2023-12-14T16:33:24;2.40;94.70
16313;DHT22;8265;52.622;13.296;2023-12-14T16:38:45;2.40;95.10
16313;DHT22;8265;52.622;13.296;2023-12-14T16:44:06;2.40;95.10
16313;DHT22;8265;52.622;13.296;2023-12-14T16:49:27;2.30;95.60
16313;DHT22;8265;52.622;13.296;2023-12-14T16:54:48;2.30;95.80
16313;DHT22;8265;52.622;13.296;2023-12-14T17:00:09;2.40;95.70
16313;DHT22;8265;52.622;13.296;2023-12-14T17:05:30;2.30;95.70
16313;DHT22;8265;52.622;13.296;2023-12-14T17:10:51;2.30;95.40
16313;DHT22;8265;52.622;13.296;2023-12-14T17:16:12;2.30;94.60
16313;DHT22;8265;52.622;13.296;2023-12-14T17:21:33;2.30;94.70
16313;DHT22;8265;52.622;13.296;2023-12-14T17:26:54;2.20;95.10
16313;DHT22;8265;52.622;13.296;2023-12-14T17:32:15;2.30;95.50
16313;DHT22;8265;52.622;13.296;2023-12-14T17:37:36;2.30;94.40
16313;DHT22;8265;52.622;13.296;2023-12-14T17:42:57;2.20;94.30
16313;DHT22;8265;52.622;13.296;2023-12-14T17:48:18;2.10;94.90
16313;DHT22;8265;52.622;13.296;2023-12-14T17:53:39;2.10;95.00
16313;DHT22;8265;52.622;13.296;2023-12-14T17:59:03;2.10;95.00
16313;DHT22;8265;52.622;13.296;2023-12-14T18:04:21;2.10;94.80
16313;DHT22;8265;52.622;13.296;2023-12-14T18:09:42;2.00;94.90
16313;DHT22;8265;52.622;13.296;2023-12-14T18:15:03;2.10;94.70
16313;DHT22;8265;52.622;13.296;2023-12-14T18:20:24;2.00;94.60
16313;DHT22;8265;52.622;13.296;2023-12-14T18:25:45;2.00;94.60
16313;DHT22;8265;52.622;13.296;2023-12-14T18:31:06;1.90;94.60
16313;DHT22;8265;52.622;13.296;2023-12-14T18:36:27;2.00;94.50
16313;DHT22;8265;52.622;13.296;2023-12-14T18:41:47;1.90;94.50
16313;DHT22;8265;52.622;13.296;2023-12-14T18:47:09;1.90;94.40
16313;DHT22;8265;52.622;13.296;2023-12-14T18:52:29;1.90;94.40
16313;DHT22;8265;52.622;13.296;2023-12-14T18:57:51;1.90;94.40
16313;DHT22;8265;52.622;13.296;2023-12-14T19:03:11;1.90;93.90
16313;DHT22;8265;52.622;13.296;2023-12-14T19:08:33;1.90;93.70
16313;DHT22;8265;52.622;13.296;2023-12-14T19:13:53;1.90;93.90
16313;DHT22;8265;52.622;13.296;2023-12-14T19:19:14;1.80;94.00
16313;DHT22;8265;52.622;13.296;2023-12-14T19:24:35;1.80;93.80
16313;DHT22;8265;52.622;13.296;2023-12-14T19:29:56;1.70;93.70
16313;DHT22;8265;52.622;13.296;2023-12-14T19:35:17;1.70;94.10
16313;DHT22;8265;52.622;13.296;2023-12-14T19:40:38;1.80;94.10
16313;DHT22;8265;52.622;13.296;2023-12-14T19:45:59;1.80;93.80
16313;DHT22;8265;52.622;13.296;2023-12-14T19:51:20;1.80;93.70
16313;DHT22;8265;52.622;13.296;2023-12-14T19:56:44;1.70;94.30
16313;DHT22;8265;52.622;13.296;2023-12-14T20:02:02;1.80;93.60
16313;DHT22;8265;52.622;13.296;2023-12-14T20:07:23;1.80;93.30
16313;DHT22;8265;52.622;13.296;2023-12-14T20:12:44;1.70;93.20
16313;DHT22;8265;52.622;13.296;2023-12-14T20:18:06;1.70;93.90
16313;DHT22;8265;52.622;13.296;2023-12-14T20:23:26;1.70;94.10
16313;DHT22;8265;52.622;13.296;2023-12-14T20:28:47;1.70;93.70
16313;DHT22;8265;52.622;13.296;2023-12-14T20:34:08;1.70;93.70
16313;DHT22;8265;52.622;13.296;2023-12-14T20:39:29;1.70;93.40
16313;DHT22;8265;52.622;13.296;2023-12-14T20:44:50;1.70;92.90
16313;DHT22;8265;52.622;13.296;2023-12-14T20:50:11;1.70;94.00
16313;DHT22;8265;52.622;13.296;2023-12-14T20:55:32;1.60;94.10
16313;DHT22;8265;52.622;13.296;2023-12-14T21:00:53;1.60;94.70
16313;DHT22;8265;52.622;13.296;2023-12-14T21:06:14;1.60;94.40
16313;DHT22;8265;52.622;13.296;2023-12-14T21:11:35;1.50;94.50
16313;DHT22;8265;52.622;13.296;2023-12-14T21:16:56;1.50;95.10
16313;DHT22;8265;52.622;13.296;2023-12-14T21:22:17;1.40;95.50
16313;DHT22;8265;52.622;13.296;2023-12-14T21:27:38;1.50;95.90
16313;DHT22;8265;52.622;13.296;2023-12-14T21:32:59;1.50;95.40
16313;DHT22;8265;52.622;13.296;2023-12-14T21:38:20;1.40;95.70
16313;DHT22;8265;52.622;13.296;2023-12-14T21:43:41;1.50;96.20
16313;DHT22;8265;52.622;13.296;2023-12-14T21:49:02;1.40;96.00
16313;DHT22;8265;52.622;13.296;2023-12-14T21:54:23;1.50;96.10
16313;DHT22;8265;52.622;13.296;2023-12-14T21:59:44;1.40;96.30
16313;DHT22;8265;52.622;13.296;2023-12-14T22:05:05;1.30;96.50
16313;DHT22;8265;52.622;13.296;2023-12-14T22:10:26;1.20;96.90
16313;DHT22;8265;52.622;13.296;2023-12-14T22:15:47;1.20;97.00
16313;DHT22;8265;52.622;13.296;2023-12-14T22:21:08;1.40;96.90
16313;DHT22;8265;52.622;13.296;2023-12-14T22:26:29;1.40;96.30
16313;DHT22;8265;52.622;13.296;2023-12-14T22:31:50;1.40;96.30
16313;DHT22;8265;52.622;13.296;2023-12-14T22:37:11;1.50;95.20
16313;DHT22;8265;52.622;13.296;2023-12-14T22:42:32;1.50;95.40
16313;DHT22;8265;52.622;13.296;2023-12-14T22:47:53;1.60;94.80
16313;DHT22;8265;52.622;13.296;2023-12-14T22:53:14;1.50;94.90
16313;DHT22;8265;52.622;13.296;2023-12-14T22:58:35;1.50;95.20
16313;DHT22;8265;52.622;13.296;2023-12-14T23:03:56;1.50;94.60
16313;DHT22;8265;52.622;13.296;2023-12-14T23:09:17;1.50;94.60
16313;DHT22;8265;52.622;13.296;2023-12-14T23:14:38;1.50;93.70
16313;DHT22;8265;52.622;13.296;2023-12-14T23:20:00;1.50;93.50
16313;DHT22;8265;52.622;13.296;2023-12-14T23:25:20;1.40;94.00
16313;DHT22;8265;52.622;13.296;2023-12-14T23:30:41;1.50;93.50
16313;DHT22;8265;52.622;13.296;2023-12-14T23:36:02;1.40;93.70
16313;DHT22;8265;52.622;13.296;2023-12-14T23:41:23;1.40;94.20
16313;DHT22;8265;52.622;13.296;2023-12-14T23:46:44;1.40;93.80
16313;DHT22;8265;52.622;13.296;2023-12-14T23:52:05;1.40;94.30
16313;DHT22;8265;52.622;13.296;2023-12-14T23:57:26;1.40;94.50
